This is the latest recevied weather packets stored in our database for station/object KF0TNT. If no packets are shown the sender has not sent any weather packets the latest 1 day(s).
| Time | Temp. | Humidity | Pressure | Rain* | Wind** | Luminosity | Snow |
|---|---|---|---|---|---|---|---|
| 1778115315 | 2.78° C | 69% | 1019.5 hPa | 0 mm | - | 56 W/m² | - |
| 1778115011 | 2.78° C | 69% | 1019.4 hPa | 0 mm | - | 61 W/m² | - |
| 1778114406 | 2.78° C | 69% | 1019.4 hPa | 0 mm | - | 72 W/m² | - |
| 1778113493 | 3.33° C | 70% | 1019.4 hPa | 0 mm | - | 94 W/m² | - |
| 1778112886 | 2.78° C | 67% | 1019.5 hPa | 0 mm | - | 118 W/m² | - |
| 1778112279 | 3.33° C | 68% | 1019.4 hPa | 0 mm | - | 164 W/m² | - |
| 1778111066 | 2.78° C | 68% | 1019.4 hPa | 0 mm | - | 319 W/m² | - |
| 1778110156 | 2.22° C | 71% | 1019.5 hPa | 0 mm | - | 217 W/m² | - |
| 1778108640 | 1.11° C | 72% | 1019.5 hPa | 0 mm | - | 452 W/m² | - |
| 1778108336 | 1.11° C | 72% | 1019.4 hPa | 0 mm | - | 223 W/m² | - |
| 1778107428 | 1.11° C | 74% | 1019.5 hPa | 0 mm | - | 118 W/m² | - |
| 1778107124 | 1.11° C | 75% | 1019.4 hPa | 0 mm | - | 121 W/m² | - |
| 1778105300 | 1.11° C | 76% | 1019.6 hPa | 0 mm | - | 337 W/m² | - |
| 1778103484 | 0° C | 81% | 1019.6 hPa | 0 mm | - | 213 W/m² | - |
| 1778101359 | -0.56° C | 85% | 1020.4 hPa | 0 mm | - | 151 W/m² | - |
| 1778100752 | -1.11° C | 86% | 1020.2 hPa | 0 mm | - | 102 W/m² | - |
| 1778100449 | -1.11° C | 86% | 1020 hPa | 0 mm | - | 91 W/m² | - |
| 1778100146 | -1.11° C | 87% | 1020.5 hPa | 0 mm | - | 87 W/m² | - |
| 1778099845 | -1.11° C | 87% | 1020.4 hPa | 0 mm | - | 83 W/m² | - |
| 1778097115 | 0° C | 85% | 1019.7 hPa | 0 mm | - | 203 W/m² | - |
| 1778096813 | 0° C | 83% | 1020 hPa | 0 mm | - | 292 W/m² | - |
| 1778095296 | -1.11° C | 87% | 1020 hPa | 0 mm | - | 90 W/m² | - |
| 1778094387 | -0.56° C | 87% | 1019.9 hPa | 0 mm | - | 96 W/m² | - |
| 1778093476 | -1.11° C | 89% | 1019.9 hPa | 0 mm | - | 73 W/m² | - |
| 1778092568 | 0° C | 85% | 1019.9 hPa | 0 mm | - | 105 W/m² | - |
* Rain latest hour (hover to see other rain measurements)
** Current wind speed in m/s (hover to see current wind gust speed)